sensor_id;sensor_type;location;lat;lon;timestamp;P1;durP1;ratioP1;P2;durP2;ratioP2
15966;SDS011;15175;48.154;11.534;2024-02-26T00:06:29;2.85;;;0.77;;
15966;SDS011;15175;48.154;11.534;2024-02-26T00:12:33;4.10;;;1.40;;
15966;SDS011;15175;48.154;11.534;2024-02-26T00:18:35;10.95;;;1.90;;
15966;SDS011;15175;48.154;11.534;2024-02-26T00:24:37;2.75;;;1.02;;
15966;SDS011;15175;48.154;11.534;2024-02-26T00:30:43;4.10;;;1.67;;
15966;SDS011;15175;48.154;11.534;2024-02-26T00:36:45;3.55;;;1.48;;
15966;SDS011;15175;48.154;11.534;2024-02-26T00:42:47;4.43;;;1.50;;
15966;SDS011;15175;48.154;11.534;2024-02-26T00:48:51;1.63;;;0.60;;
15966;SDS011;15175;48.154;11.534;2024-02-26T00:54:53;3.85;;;1.10;;
15966;SDS011;15175;48.154;11.534;2024-02-26T01:00:56;2.40;;;1.13;;
15966;SDS011;15175;48.154;11.534;2024-02-26T01:06:59;4.20;;;1.30;;
15966;SDS011;15175;48.154;11.534;2024-02-26T01:13:01;5.22;;;1.95;;
15966;SDS011;15175;48.154;11.534;2024-02-26T01:19:04;3.83;;;1.40;;
15966;SDS011;15175;48.154;11.534;2024-02-26T01:25:08;0.98;;;0.65;;
15966;SDS011;15175;48.154;11.534;2024-02-26T01:31:10;3.15;;;1.10;;
15966;SDS011;15175;48.154;11.534;2024-02-26T01:37:13;3.40;;;1.40;;
15966;SDS011;15175;48.154;11.534;2024-02-26T01:43:16;4.65;;;1.77;;
15966;SDS011;15175;48.154;11.534;2024-02-26T01:49:18;4.20;;;1.10;;
15966;SDS011;15175;48.154;11.534;2024-02-26T01:55:22;2.47;;;0.98;;
15966;SDS011;15175;48.154;11.534;2024-02-26T02:01:27;3.05;;;1.25;;
15966;SDS011;15175;48.154;11.534;2024-02-26T02:07:31;4.15;;;1.23;;
15966;SDS011;15175;48.154;11.534;2024-02-26T02:13:33;3.80;;;1.02;;
15966;SDS011;15175;48.154;11.534;2024-02-26T02:19:37;3.58;;;1.15;;
15966;SDS011;15175;48.154;11.534;2024-02-26T02:25:40;1.65;;;1.00;;
15966;SDS011;15175;48.154;11.534;2024-02-26T02:37:45;4.80;;;0.85;;
15966;SDS011;15175;48.154;11.534;2024-02-26T02:43:48;2.78;;;0.90;;
15966;SDS011;15175;48.154;11.534;2024-02-26T02:49:50;2.90;;;1.10;;
15966;SDS011;15175;48.154;11.534;2024-02-26T02:55:53;2.15;;;0.80;;
15966;SDS011;15175;48.154;11.534;2024-02-26T03:01:56;2.72;;;0.90;;
15966;SDS011;15175;48.154;11.534;2024-02-26T03:07:59;1.88;;;1.00;;
15966;SDS011;15175;48.154;11.534;2024-02-26T03:14:01;1.92;;;0.90;;
15966;SDS011;15175;48.154;11.534;2024-02-26T03:20:05;1.73;;;0.68;;
15966;SDS011;15175;48.154;11.534;2024-02-26T03:26:09;5.38;;;0.90;;
15966;SDS011;15175;48.154;11.534;2024-02-26T03:32:14;3.65;;;1.17;;
15966;SDS011;15175;48.154;11.534;2024-02-26T03:38:18;2.03;;;0.82;;
15966;SDS011;15175;48.154;11.534;2024-02-26T03:44:20;2.67;;;1.10;;
15966;SDS011;15175;48.154;11.534;2024-02-26T03:50:22;2.67;;;1.20;;
15966;SDS011;15175;48.154;11.534;2024-02-26T03:56:26;3.67;;;1.25;;
15966;SDS011;15175;48.154;11.534;2024-02-26T04:02:29;2.85;;;0.88;;
15966;SDS011;15175;48.154;11.534;2024-02-26T04:08:31;3.20;;;1.20;;
15966;SDS011;15175;48.154;11.534;2024-02-26T04:14:34;3.17;;;0.95;;
15966;SDS011;15175;48.154;11.534;2024-02-26T04:20:37;2.80;;;0.93;;
15966;SDS011;15175;48.154;11.534;2024-02-26T04:26:41;8.40;;;1.40;;
15966;SDS011;15175;48.154;11.534;2024-02-26T04:32:44;2.10;;;0.80;;
15966;SDS011;15175;48.154;11.534;2024-02-26T04:38:47;3.08;;;0.63;;
15966;SDS011;15175;48.154;11.534;2024-02-26T04:44:49;4.65;;;0.98;;
15966;SDS011;15175;48.154;11.534;2024-02-26T04:50:53;1.85;;;0.73;;
15966;SDS011;15175;48.154;11.534;2024-02-26T04:56:55;3.08;;;0.90;;
15966;SDS011;15175;48.154;11.534;2024-02-26T05:02:57;0.57;;;0.32;;
15966;SDS011;15175;48.154;11.534;2024-02-26T05:09:01;4.00;;;0.90;;
15966;SDS011;15175;48.154;11.534;2024-02-26T05:15:04;7.50;;;2.10;;
15966;SDS011;15175;48.154;11.534;2024-02-26T05:21:07;3.60;;;1.02;;
15966;SDS011;15175;48.154;11.534;2024-02-26T05:27:10;4.00;;;1.10;;
15966;SDS011;15175;48.154;11.534;2024-02-26T05:33:13;1.73;;;0.68;;
15966;SDS011;15175;48.154;11.534;2024-02-26T05:39:15;0.82;;;0.28;;
15966;SDS011;15175;48.154;11.534;2024-02-26T05:51:22;7.07;;;1.83;;
15966;SDS011;15175;48.154;11.534;2024-02-26T05:57:24;1.83;;;0.80;;
15966;SDS011;15175;48.154;11.534;2024-02-26T06:03:34;2.00;;;0.68;;
15966;SDS011;15175;48.154;11.534;2024-02-26T06:09:36;3.47;;;1.00;;
15966;SDS011;15175;48.154;11.534;2024-02-26T06:15:39;2.08;;;0.73;;
15966;SDS011;15175;48.154;11.534;2024-02-26T06:21:43;10.80;;;3.60;;
15966;SDS011;15175;48.154;11.534;2024-02-26T06:27:45;10.30;;;1.30;;
15966;SDS011;15175;48.154;11.534;2024-02-26T06:33:47;2.33;;;0.80;;
15966;SDS011;15175;48.154;11.534;2024-02-26T06:39:51;2.60;;;1.20;;
15966;SDS011;15175;48.154;11.534;2024-02-26T06:45:53;4.32;;;1.00;;
15966;SDS011;15175;48.154;11.534;2024-02-26T06:51:55;3.03;;;1.13;;
15966;SDS011;15175;48.154;11.534;2024-02-26T06:57:59;6.10;;;1.23;;
15966;SDS011;15175;48.154;11.534;2024-02-26T07:04:01;10.93;;;2.10;;
15966;SDS011;15175;48.154;11.534;2024-02-26T07:10:04;6.35;;;1.80;;
15966;SDS011;15175;48.154;11.534;2024-02-26T07:16:10;6.80;;;2.20;;
15966;SDS011;15175;48.154;11.534;2024-02-26T07:22:12;13.05;;;4.00;;
15966;SDS011;15175;48.154;11.534;2024-02-26T07:28:15;13.35;;;2.90;;
15966;SDS011;15175;48.154;11.534;2024-02-26T07:34:18;6.57;;;1.63;;
15966;SDS011;15175;48.154;11.534;2024-02-26T07:40:21;11.45;;;2.55;;
15966;SDS011;15175;48.154;11.534;2024-02-26T07:46:23;6.45;;;1.85;;
15966;SDS011;15175;48.154;11.534;2024-02-26T07:52:26;13.45;;;2.25;;
15966;SDS011;15175;48.154;11.534;2024-02-26T07:58:29;14.82;;;2.60;;
15966;SDS011;15175;48.154;11.534;2024-02-26T08:04:31;5.10;;;1.45;;
15966;SDS011;15175;48.154;11.534;2024-02-26T08:10:34;6.32;;;2.10;;
15966;SDS011;15175;48.154;11.534;2024-02-26T08:16:37;3.97;;;1.65;;
15966;SDS011;15175;48.154;11.534;2024-02-26T08:22:39;6.35;;;1.73;;
15966;SDS011;15175;48.154;11.534;2024-02-26T08:28:42;5.25;;;1.92;;
15966;SDS011;15175;48.154;11.534;2024-02-26T08:34:45;11.32;;;3.97;;
15966;SDS011;15175;48.154;11.534;2024-02-26T08:40:48;7.93;;;3.42;;
15966;SDS011;15175;48.154;11.534;2024-02-26T08:46:51;14.88;;;2.60;;
15966;SDS011;15175;48.154;11.534;2024-02-26T08:52:54;8.93;;;2.35;;
15966;SDS011;15175;48.154;11.534;2024-02-26T08:58:56;8.15;;;1.90;;
15966;SDS011;15175;48.154;11.534;2024-02-26T09:05:01;8.38;;;2.30;;
15966;SDS011;15175;48.154;11.534;2024-02-26T09:11:03;7.35;;;2.00;;
15966;SDS011;15175;48.154;11.534;2024-02-26T09:17:06;8.73;;;1.60;;
15966;SDS011;15175;48.154;11.534;2024-02-26T09:23:09;8.50;;;2.47;;
15966;SDS011;15175;48.154;11.534;2024-02-26T09:29:12;11.07;;;2.33;;
15966;SDS011;15175;48.154;11.534;2024-02-26T09:35:14;7.38;;;2.42;;
15966;SDS011;15175;48.154;11.534;2024-02-26T09:41:17;4.25;;;1.33;;
15966;SDS011;15175;48.154;11.534;2024-02-26T09:47:21;3.15;;;1.30;;
15966;SDS011;15175;48.154;11.534;2024-02-26T09:53:27;6.68;;;1.75;;
15966;SDS011;15175;48.154;11.534;2024-02-26T09:59:34;5.55;;;1.45;;
15966;SDS011;15175;48.154;11.534;2024-02-26T10:05:41;3.85;;;1.33;;
15966;SDS011;15175;48.154;11.534;2024-02-26T10:11:44;5.82;;;1.55;;
15966;SDS011;15175;48.154;11.534;2024-02-26T10:17:49;3.00;;;1.05;;
15966;SDS011;15175;48.154;11.534;2024-02-26T10:23:51;4.22;;;1.33;;
15966;SDS011;15175;48.154;11.534;2024-02-26T10:29:55;6.95;;;1.60;;
15966;SDS011;15175;48.154;11.534;2024-02-26T10:36:00;3.50;;;1.00;;
15966;SDS011;15175;48.154;11.534;2024-02-26T10:42:02;4.78;;;1.13;;
15966;SDS011;15175;48.154;11.534;2024-02-26T10:48:10;3.40;;;1.10;;
15966;SDS011;15175;48.154;11.534;2024-02-26T10:54:16;3.03;;;1.02;;
15966;SDS011;15175;48.154;11.534;2024-02-26T11:00:19;5.68;;;1.30;;
15966;SDS011;15175;48.154;11.534;2024-02-26T11:06:22;4.78;;;0.88;;
15966;SDS011;15175;48.154;11.534;2024-02-26T11:12:25;2.13;;;0.60;;
15966;SDS011;15175;48.154;11.534;2024-02-26T11:18:29;3.40;;;1.23;;
15966;SDS011;15175;48.154;11.534;2024-02-26T11:24:32;5.38;;;0.90;;
15966;SDS011;15175;48.154;11.534;2024-02-26T11:30:37;2.78;;;0.80;;
15966;SDS011;15175;48.154;11.534;2024-02-26T11:36:43;2.42;;;0.90;;
15966;SDS011;15175;48.154;11.534;2024-02-26T11:42:46;5.25;;;0.93;;
15966;SDS011;15175;48.154;11.534;2024-02-26T11:48:52;4.10;;;1.08;;
15966;SDS011;15175;48.154;11.534;2024-02-26T11:54:57;3.50;;;0.70;;
15966;SDS011;15175;48.154;11.534;2024-02-26T12:00:59;3.22;;;0.70;;
15966;SDS011;15175;48.154;11.534;2024-02-26T12:07:05;7.72;;;1.52;;
15966;SDS011;15175;48.154;11.534;2024-02-26T12:13:08;2.67;;;0.80;;
15966;SDS011;15175;48.154;11.534;2024-02-26T12:19:12;2.67;;;0.75;;
15966;SDS011;15175;48.154;11.534;2024-02-26T12:25:17;2.63;;;0.73;;
15966;SDS011;15175;48.154;11.534;2024-02-26T12:37:28;5.30;;;1.15;;
15966;SDS011;15175;48.154;11.534;2024-02-26T12:43:32;1.67;;;0.68;;
15966;SDS011;15175;48.154;11.534;2024-02-26T12:49:34;1.75;;;0.70;;
15966;SDS011;15175;48.154;11.534;2024-02-26T12:55:36;4.05;;;0.90;;
15966;SDS011;15175;48.154;11.534;2024-02-26T13:01:42;2.92;;;1.00;;
15966;SDS011;15175;48.154;11.534;2024-02-26T13:07:46;8.85;;;0.95;;
15966;SDS011;15175;48.154;11.534;2024-02-26T13:13:48;2.80;;;0.77;;
15966;SDS011;15175;48.154;11.534;2024-02-26T13:19:53;2.88;;;1.00;;
15966;SDS011;15175;48.154;11.534;2024-02-26T13:25:56;2.70;;;0.80;;
15966;SDS011;15175;48.154;11.534;2024-02-26T13:31:58;2.95;;;0.90;;
15966;SDS011;15175;48.154;11.534;2024-02-26T13:38:02;2.13;;;0.68;;
15966;SDS011;15175;48.154;11.534;2024-02-26T13:44:05;3.85;;;0.82;;
15966;SDS011;15175;48.154;11.534;2024-02-26T13:50:08;1.65;;;0.50;;
15966;SDS011;15175;48.154;11.534;2024-02-26T13:56:13;2.03;;;0.50;;
15966;SDS011;15175;48.154;11.534;2024-02-26T14:02:16;2.70;;;0.50;;
15966;SDS011;15175;48.154;11.534;2024-02-26T14:08:18;3.83;;;0.50;;
15966;SDS011;15175;48.154;11.534;2024-02-26T14:14:22;12.15;;;1.88;;
15966;SDS011;15175;48.154;11.534;2024-02-26T14:20:25;3.42;;;0.65;;
15966;SDS011;15175;48.154;11.534;2024-02-26T14:26:27;6.63;;;1.20;;
15966;SDS011;15175;48.154;11.534;2024-02-26T14:32:31;2.95;;;0.47;;
15966;SDS011;15175;48.154;11.534;2024-02-26T14:38:35;2.15;;;0.80;;
15966;SDS011;15175;48.154;11.534;2024-02-26T14:44:39;7.72;;;1.00;;
15966;SDS011;15175;48.154;11.534;2024-02-26T14:50:43;4.18;;;1.02;;
15966;SDS011;15175;48.154;11.534;2024-02-26T14:56:45;3.20;;;1.17;;
15966;SDS011;15175;48.154;11.534;2024-02-26T15:02:48;4.20;;;1.38;;
15966;SDS011;15175;48.154;11.534;2024-02-26T15:08:53;7.50;;;1.50;;
15966;SDS011;15175;48.154;11.534;2024-02-26T15:14:56;5.90;;;1.40;;
15966;SDS011;15175;48.154;11.534;2024-02-26T15:20:59;3.50;;;1.10;;
15966;SDS011;15175;48.154;11.534;2024-02-26T15:27:02;3.33;;;1.33;;
15966;SDS011;15175;48.154;11.534;2024-02-26T15:33:05;3.75;;;1.25;;
15966;SDS011;15175;48.154;11.534;2024-02-26T15:39:07;5.38;;;1.02;;
15966;SDS011;15175;48.154;11.534;2024-02-26T15:45:11;2.22;;;0.70;;
15966;SDS011;15175;48.154;11.534;2024-02-26T15:51:20;3.10;;;1.08;;
15966;SDS011;15175;48.154;11.534;2024-02-26T15:57:24;3.05;;;1.20;;
15966;SDS011;15175;48.154;11.534;2024-02-26T16:03:27;6.63;;;1.48;;
15966;SDS011;15175;48.154;11.534;2024-02-26T16:09:30;5.20;;;1.00;;
15966;SDS011;15175;48.154;11.534;2024-02-26T16:15:32;5.45;;;1.15;;
15966;SDS011;15175;48.154;11.534;2024-02-26T16:21:37;5.85;;;1.20;;
15966;SDS011;15175;48.154;11.534;2024-02-26T16:27:40;2.17;;;0.93;;
15966;SDS011;15175;48.154;11.534;2024-02-26T16:33:42;3.88;;;1.02;;
15966;SDS011;15175;48.154;11.534;2024-02-26T16:39:46;3.38;;;0.82;;
15966;SDS011;15175;48.154;11.534;2024-02-26T16:45:48;3.80;;;1.40;;
15966;SDS011;15175;48.154;11.534;2024-02-26T16:51:50;2.70;;;1.00;;
15966;SDS011;15175;48.154;11.534;2024-02-26T16:57:55;4.63;;;1.10;;
15966;SDS011;15175;48.154;11.534;2024-02-26T17:03:57;3.65;;;1.15;;
15966;SDS011;15175;48.154;11.534;2024-02-26T17:09:59;3.63;;;1.80;;
15966;SDS011;15175;48.154;11.534;2024-02-26T17:16:03;7.47;;;2.03;;
15966;SDS011;15175;48.154;11.534;2024-02-26T17:22:06;6.22;;;1.67;;
15966;SDS011;15175;48.154;11.534;2024-02-26T17:28:09;4.97;;;1.33;;
15966;SDS011;15175;48.154;11.534;2024-02-26T17:34:13;4.10;;;1.30;;
15966;SDS011;15175;48.154;11.534;2024-02-26T17:40:16;4.53;;;1.50;;
15966;SDS011;15175;48.154;11.534;2024-02-26T17:46:18;6.78;;;1.73;;
15966;SDS011;15175;48.154;11.534;2024-02-26T17:52:22;5.95;;;1.60;;
15966;SDS011;15175;48.154;11.534;2024-02-26T17:58:24;4.70;;;1.70;;
15966;SDS011;15175;48.154;11.534;2024-02-26T18:04:26;4.75;;;1.55;;
15966;SDS011;15175;48.154;11.534;2024-02-26T18:10:30;5.30;;;1.55;;
15966;SDS011;15175;48.154;11.534;2024-02-26T18:16:32;5.25;;;1.63;;
15966;SDS011;15175;48.154;11.534;2024-02-26T18:22:35;5.53;;;2.17;;
15966;SDS011;15175;48.154;11.534;2024-02-26T18:28:38;4.82;;;1.63;;
15966;SDS011;15175;48.154;11.534;2024-02-26T18:34:41;5.40;;;1.70;;
15966;SDS011;15175;48.154;11.534;2024-02-26T18:40:43;4.43;;;1.73;;
15966;SDS011;15175;48.154;11.534;2024-02-26T18:46:47;7.30;;;2.20;;
15966;SDS011;15175;48.154;11.534;2024-02-26T18:52:49;6.93;;;1.63;;
15966;SDS011;15175;48.154;11.534;2024-02-26T18:58:51;4.25;;;1.83;;
15966;SDS011;15175;48.154;11.534;2024-02-26T19:04:55;5.70;;;1.88;;
15966;SDS011;15175;48.154;11.534;2024-02-26T19:10:57;7.05;;;2.58;;
15966;SDS011;15175;48.154;11.534;2024-02-26T19:16:59;5.53;;;2.13;;
15966;SDS011;15175;48.154;11.534;2024-02-26T19:23:03;14.32;;;5.72;;
15966;SDS011;15175;48.154;11.534;2024-02-26T19:29:05;5.65;;;2.28;;
15966;SDS011;15175;48.154;11.534;2024-02-26T19:35:08;8.40;;;1.90;;
15966;SDS011;15175;48.154;11.534;2024-02-26T19:41:11;6.97;;;2.30;;
15966;SDS011;15175;48.154;11.534;2024-02-26T19:47:14;7.47;;;2.40;;
15966;SDS011;15175;48.154;11.534;2024-02-26T19:53:16;6.35;;;2.20;;
15966;SDS011;15175;48.154;11.534;2024-02-26T19:59:19;6.15;;;2.50;;
15966;SDS011;15175;48.154;11.534;2024-02-26T20:05:22;8.10;;;4.28;;
15966;SDS011;15175;48.154;11.534;2024-02-26T20:11:24;6.47;;;2.20;;
15966;SDS011;15175;48.154;11.534;2024-02-26T20:17:27;22.00;;;2.85;;
15966;SDS011;15175;48.154;11.534;2024-02-26T20:23:30;7.82;;;3.15;;
15966;SDS011;15175;48.154;11.534;2024-02-26T20:29:32;6.13;;;2.70;;
15966;SDS011;15175;48.154;11.534;2024-02-26T20:35:36;7.28;;;2.50;;
15966;SDS011;15175;48.154;11.534;2024-02-26T20:41:38;6.82;;;2.78;;
15966;SDS011;15175;48.154;11.534;2024-02-26T20:47:42;7.07;;;3.00;;
15966;SDS011;15175;48.154;11.534;2024-02-26T20:53:46;7.05;;;3.03;;
15966;SDS011;15175;48.154;11.534;2024-02-26T20:59:48;6.55;;;2.65;;
15966;SDS011;15175;48.154;11.534;2024-02-26T21:05:51;6.75;;;2.45;;
15966;SDS011;15175;48.154;11.534;2024-02-26T21:11:54;6.05;;;2.03;;
15966;SDS011;15175;48.154;11.534;2024-02-26T21:17:56;8.82;;;2.35;;
15966;SDS011;15175;48.154;11.534;2024-02-26T21:23:59;6.82;;;2.35;;
15966;SDS011;15175;48.154;11.534;2024-02-26T21:30:03;5.38;;;2.05;;
15966;SDS011;15175;48.154;11.534;2024-02-26T21:36:06;5.10;;;1.80;;
15966;SDS011;15175;48.154;11.534;2024-02-26T21:42:08;9.65;;;2.38;;
15966;SDS011;15175;48.154;11.534;2024-02-26T21:48:12;5.20;;;2.20;;
15966;SDS011;15175;48.154;11.534;2024-02-26T21:54:15;6.00;;;2.22;;
15966;SDS011;15175;48.154;11.534;2024-02-26T22:00:18;4.38;;;2.15;;
15966;SDS011;15175;48.154;11.534;2024-02-26T22:06:22;6.65;;;3.03;;
15966;SDS011;15175;48.154;11.534;2024-02-26T22:12:24;8.32;;;2.30;;
15966;SDS011;15175;48.154;11.534;2024-02-26T22:18:27;5.25;;;2.22;;
15966;SDS011;15175;48.154;11.534;2024-02-26T22:24:31;6.57;;;2.90;;
15966;SDS011;15175;48.154;11.534;2024-02-26T22:30:33;6.43;;;2.83;;
15966;SDS011;15175;48.154;11.534;2024-02-26T22:36:37;5.80;;;3.00;;
15966;SDS011;15175;48.154;11.534;2024-02-26T22:42:41;7.47;;;3.47;;
15966;SDS011;15175;48.154;11.534;2024-02-26T22:48:43;9.88;;;3.35;;
15966;SDS011;15175;48.154;11.534;2024-02-26T22:54:45;8.80;;;3.30;;
15966;SDS011;15175;48.154;11.534;2024-02-26T23:00:50;8.25;;;3.33;;
15966;SDS011;15175;48.154;11.534;2024-02-26T23:06:52;10.43;;;3.88;;
15966;SDS011;15175;48.154;11.534;2024-02-26T23:12:54;9.25;;;3.85;;
15966;SDS011;15175;48.154;11.534;2024-02-26T23:18:59;10.68;;;4.50;;
15966;SDS011;15175;48.154;11.534;2024-02-26T23:25:03;9.95;;;3.58;;
15966;SDS011;15175;48.154;11.534;2024-02-26T23:31:08;8.18;;;4.03;;
15966;SDS011;15175;48.154;11.534;2024-02-26T23:37:12;7.65;;;3.08;;
15966;SDS011;15175;48.154;11.534;2024-02-26T23:43:14;5.75;;;3.20;;
15966;SDS011;15175;48.154;11.534;2024-02-26T23:49:16;9.20;;;4.65;;
15966;SDS011;15175;48.154;11.534;2024-02-26T23:55:20;7.30;;;3.78;;
